sensor_id;sensor_type;location;lat;lon;timestamp;pressure;altitude;pressure_sealevel;temperature;humidity
47280;BME280;34064;44.942;0.008;2023-01-06T00:01:35;99644.00;;;14.71;67.17
47280;BME280;34064;44.942;0.008;2023-01-06T00:04:02;99643.28;;;14.69;67.35
47280;BME280;34064;44.942;0.008;2023-01-06T00:06:29;99638.91;;;14.68;67.18
47280;BME280;34064;44.942;0.008;2023-01-06T00:09:02;99640.81;;;14.65;67.18
47280;BME280;34064;44.942;0.008;2023-01-06T00:11:30;99638.28;;;14.64;67.24
47280;BME280;34064;44.942;0.008;2023-01-06T00:13:56;99641.19;;;14.61;67.29
47280;BME280;34064;44.942;0.008;2023-01-06T00:16:24;99633.31;;;14.59;67.17
47280;BME280;34064;44.942;0.008;2023-01-06T00:18:54;99640.31;;;14.60;67.14
47280;BME280;34064;44.942;0.008;2023-01-06T00:21:23;99632.31;;;14.60;67.13
47280;BME280;34064;44.942;0.008;2023-01-06T00:23:56;99632.31;;;14.60;67.23
47280;BME280;34064;44.942;0.008;2023-01-06T00:26:26;99625.28;;;14.59;67.25
47280;BME280;34064;44.942;0.008;2023-01-06T00:29:03;99631.47;;;14.60;67.24
47280;BME280;34064;44.942;0.008;2023-01-06T00:31:29;99622.63;;;14.59;67.22
47280;BME280;34064;44.942;0.008;2023-01-06T00:33:56;99629.63;;;14.60;67.25
47280;BME280;34064;44.942;0.008;2023-01-06T00:36:23;99620.78;;;14.60;67.17
47280;BME280;34064;44.942;0.008;2023-01-06T00:38:51;99622.72;;;14.58;67.30
47280;BME280;34064;44.942;0.008;2023-01-06T00:41:19;99623.59;;;14.58;67.23
47280;BME280;34064;44.942;0.008;2023-01-06T00:44:05;99624.56;;;14.57;67.28
47280;BME280;34064;44.942;0.008;2023-01-06T00:46:40;99615.66;;;14.57;67.20
47280;BME280;34064;44.942;0.008;2023-01-06T00:49:07;99620.19;;;14.56;67.32
47280;BME280;34064;44.942;0.008;2023-01-06T00:51:37;99627.22;;;14.57;67.36
47280;BME280;34064;44.942;0.008;2023-01-06T00:54:06;99621.97;;;14.56;67.35
47280;BME280;34064;44.942;0.008;2023-01-06T00:56:41;99623.81;;;14.55;67.31
47280;BME280;34064;44.942;0.008;2023-01-06T00:59:08;99625.53;;;14.56;67.27
47280;BME280;34064;44.942;0.008;2023-01-06T01:01:36;99622.13;;;14.54;67.34
47280;BME280;34064;44.942;0.008;2023-01-06T01:04:02;99619.56;;;14.53;67.19
47280;BME280;34064;44.942;0.008;2023-01-06T01:06:29;99618.72;;;14.52;67.22
47280;BME280;34064;44.942;0.008;2023-01-06T01:08:59;99620.41;;;14.53;67.23
47280;BME280;34064;44.942;0.008;2023-01-06T01:11:25;99618.72;;;14.52;67.18
47280;BME280;34064;44.942;0.008;2023-01-06T01:14:15;99613.50;;;14.50;67.21
47280;BME280;34064;44.942;0.008;2023-01-06T01:16:42;99615.31;;;14.50;67.22
47280;BME280;34064;44.942;0.008;2023-01-06T01:19:09;99614.47;;;14.49;67.22
47280;BME280;34064;44.942;0.008;2023-01-06T01:21:35;99609.25;;;14.48;67.31
47280;BME280;34064;44.942;0.008;2023-01-06T01:24:02;99603.91;;;14.48;67.18
47280;BME280;34064;44.942;0.008;2023-01-06T01:26:28;99603.91;;;14.48;67.20
47280;BME280;34064;44.942;0.008;2023-01-06T01:29:02;99609.25;;;14.48;67.38
47280;BME280;34064;44.942;0.008;2023-01-06T01:31:29;99606.56;;;14.48;67.18
47280;BME280;34064;44.942;0.008;2023-01-06T01:33:57;99615.56;;;14.47;67.29
47280;BME280;34064;44.942;0.008;2023-01-06T01:36:25;99607.66;;;14.45;67.30
47280;BME280;34064;44.942;0.008;2023-01-06T01:38:54;99610.44;;;14.44;67.21
47280;BME280;34064;44.942;0.008;2023-01-06T01:41:28;99605.09;;;14.44;67.27
47280;BME280;34064;44.942;0.008;2023-01-06T01:44:03;99608.75;;;14.43;67.16
47280;BME280;34064;44.942;0.008;2023-01-06T01:46:48;99602.56;;;14.42;67.13
47280;BME280;34064;44.942;0.008;2023-01-06T01:49:42;99602.81;;;14.39;67.29
47280;BME280;34064;44.942;0.008;2023-01-06T01:52:14;99604.03;;;14.35;67.34
47280;BME280;34064;44.942;0.008;2023-01-06T01:54:42;99608.53;;;14.34;67.33
47280;BME280;34064;44.942;0.008;2023-01-06T01:57:23;99605.09;;;14.32;67.28
47280;BME280;34064;44.942;0.008;2023-01-06T01:59:52;99600.72;;;14.31;67.35
47280;BME280;34064;44.942;0.008;2023-01-06T02:02:20;99606.06;;;14.31;67.24
47280;BME280;34064;44.942;0.008;2023-01-06T02:04:53;99609.00;;;14.28;67.40
47280;BME280;34064;44.942;0.008;2023-01-06T02:07:25;99615.31;;;14.27;67.40
47280;BME280;34064;44.942;0.008;2023-01-06T02:10:14;99612.78;;;14.26;67.41
47280;BME280;34064;44.942;0.008;2023-01-06T02:12:43;99622.59;;;14.25;67.39
47280;BME280;34064;44.942;0.008;2023-01-06T02:15:21;99613.84;;;14.23;67.24
47280;BME280;34064;44.942;0.008;2023-01-06T02:18:06;99612.16;;;14.22;67.44
47280;BME280;34064;44.942;0.008;2023-01-06T02:32:30;99609.00;;;14.17;67.32
47280;BME280;34064;44.942;0.008;2023-01-06T02:35:02;99602.94;;;14.15;67.24
47280;BME280;34064;44.942;0.008;2023-01-06T02:38:02;99610.09;;;14.14;67.42
47280;BME280;34064;44.942;0.008;2023-01-06T02:40:43;99608.41;;;14.13;67.27
47280;BME280;34064;44.942;0.008;2023-01-06T02:43:33;99604.88;;;14.13;67.28
47280;BME280;34064;44.942;0.008;2023-01-06T02:46:37;99608.41;;;14.13;67.41
47280;BME280;34064;44.942;0.008;2023-01-06T02:49:31;99602.19;;;14.13;67.27
47280;BME280;34064;44.942;0.008;2023-01-06T02:52:26;99612.88;;;14.13;67.38
47280;BME280;34064;44.942;0.008;2023-01-06T02:55:05;99605.88;;;14.12;67.32
47280;BME280;34064;44.942;0.008;2023-01-06T02:57:50;99605.88;;;14.12;67.44
47280;BME280;34064;44.942;0.008;2023-01-06T03:00:42;99605.97;;;14.10;67.34
47280;BME280;34064;44.942;0.008;2023-01-06T03:03:17;99600.75;;;14.09;67.41
47280;BME280;34064;44.942;0.008;2023-01-06T03:05:50;99597.22;;;14.08;67.34
47280;BME280;34064;44.942;0.008;2023-01-06T03:08:24;99605.22;;;14.08;67.39
47280;BME280;34064;44.942;0.008;2023-01-06T03:10:53;99598.22;;;14.07;67.33
47280;BME280;34064;44.942;0.008;2023-01-06T03:16:07;99601.47;;;13.99;67.40
47280;BME280;34064;44.942;0.008;2023-01-06T03:18:36;99600.50;;;14.00;67.42
47280;BME280;34064;44.942;0.008;2023-01-06T03:21:14;99594.19;;;14.01;67.49
47280;BME280;34064;44.942;0.008;2023-01-06T03:23:45;99594.19;;;14.01;67.24
47280;BME280;34064;44.942;0.008;2023-01-06T03:26:13;99587.97;;;14.01;67.33
47280;BME280;34064;44.942;0.008;2023-01-06T03:28:41;99587.16;;;14.00;67.49
47280;BME280;34064;44.942;0.008;2023-01-06T03:42:43;99580.34;;;13.96;67.42
47280;BME280;34064;44.942;0.008;2023-01-06T03:57:10;99587.00;;;13.91;67.36
47280;BME280;34064;44.942;0.008;2023-01-06T04:00:09;99589.81;;;13.89;67.55
47280;BME280;34064;44.942;0.008;2023-01-06T04:02:39;99584.47;;;13.89;67.34
47280;BME280;34064;44.942;0.008;2023-01-06T04:05:18;99577.41;;;13.88;67.53
47280;BME280;34064;44.942;0.008;2023-01-06T04:07:46;99585.44;;;13.88;67.42
47280;BME280;34064;44.942;0.008;2023-01-06T04:10:16;99581.06;;;13.87;67.48
47280;BME280;34064;44.942;0.008;2023-01-06T04:12:44;99576.59;;;13.87;67.44
47280;BME280;34064;44.942;0.008;2023-01-06T04:15:19;99581.06;;;13.87;67.59
47280;BME280;34064;44.942;0.008;2023-01-06T04:17:47;99584.59;;;13.87;67.49
47280;BME280;34064;44.942;0.008;2023-01-06T04:20:18;99583.72;;;13.87;67.46
47280;BME280;34064;44.942;0.008;2023-01-06T04:22:46;99579.25;;;13.87;67.42
47280;BME280;34064;44.942;0.008;2023-01-06T04:25:13;99578.38;;;13.87;67.46
47280;BME280;34064;44.942;0.008;2023-01-06T04:27:41;99577.41;;;13.88;67.40
47280;BME280;34064;44.942;0.008;2023-01-06T04:30:14;99575.72;;;13.87;67.33
47280;BME280;34064;44.942;0.008;2023-01-06T04:32:42;99581.06;;;13.87;67.47
47280;BME280;34064;44.942;0.008;2023-01-06T04:35:10;99574.88;;;13.86;67.41
47280;BME280;34064;44.942;0.008;2023-01-06T04:37:38;99573.03;;;13.87;67.32
47280;BME280;34064;44.942;0.008;2023-01-06T04:40:08;99568.66;;;13.86;67.50
47280;BME280;34064;44.942;0.008;2023-01-06T04:42:39;99575.72;;;13.87;67.51
47280;BME280;34064;44.942;0.008;2023-01-06T04:45:25;99570.59;;;13.84;67.33
47280;BME280;34064;44.942;0.008;2023-01-06T04:47:52;99576.22;;;13.81;67.35
47280;BME280;34064;44.942;0.008;2023-01-06T04:50:19;99579.84;;;13.80;67.42
47280;BME280;34064;44.942;0.008;2023-01-06T04:52:47;99576.22;;;13.81;67.37
47280;BME280;34064;44.942;0.008;2023-01-06T04:55:16;99574.50;;;13.80;67.46
47280;BME280;34064;44.942;0.008;2023-01-06T04:57:43;99567.47;;;13.79;67.41
47280;BME280;34064;44.942;0.008;2023-01-06T05:00:14;99579.09;;;13.78;67.53
47280;BME280;34064;44.942;0.008;2023-01-06T05:02:41;99580.06;;;13.77;67.53
47280;BME280;34064;44.942;0.008;2023-01-06T05:05:12;99576.56;;;13.76;67.55
47280;BME280;34064;44.942;0.008;2023-01-06T05:07:43;99579.47;;;13.73;67.59
47280;BME280;34064;44.942;0.008;2023-01-06T05:10:10;99579.47;;;13.73;67.38
47280;BME280;34064;44.942;0.008;2023-01-06T05:12:38;99578.63;;;13.72;67.48
47280;BME280;34064;44.942;0.008;2023-01-06T05:15:10;99580.34;;;13.73;67.52
47280;BME280;34064;44.942;0.008;2023-01-06T05:17:37;99579.47;;;13.73;67.55
47280;BME280;34064;44.942;0.008;2023-01-06T05:20:09;99579.34;;;13.75;67.58
47280;BME280;34064;44.942;0.008;2023-01-06T05:22:37;99581.16;;;13.74;67.41
47280;BME280;34064;44.942;0.008;2023-01-06T05:25:04;99575.00;;;13.73;67.42
47280;BME280;34064;44.942;0.008;2023-01-06T05:27:32;99570.47;;;13.74;67.47
47280;BME280;34064;44.942;0.008;2023-01-06T05:30:00;99564.31;;;13.73;67.41
47280;BME280;34064;44.942;0.008;2023-01-06T05:32:27;99572.31;;;13.73;67.49
47280;BME280;34064;44.942;0.008;2023-01-06T05:34:55;99571.31;;;13.75;67.43
47280;BME280;34064;44.942;0.008;2023-01-06T05:37:22;99572.19;;;13.75;67.47
47280;BME280;34064;44.942;0.008;2023-01-06T05:39:52;99566.97;;;13.73;67.37
47280;BME280;34064;44.942;0.008;2023-01-06T05:42:19;99581.28;;;13.72;67.38
47280;BME280;34064;44.942;0.008;2023-01-06T05:44:46;99584.19;;;13.69;67.37
47280;BME280;34064;44.942;0.008;2023-01-06T05:47:12;99582.72;;;13.65;67.43
47280;BME280;34064;44.942;0.008;2023-01-06T05:49:38;99585.50;;;13.64;67.55
47280;BME280;34064;44.942;0.008;2023-01-06T05:52:05;99582.97;;;13.62;67.56
47280;BME280;34064;44.942;0.008;2023-01-06T05:54:32;99591.72;;;13.64;67.40
47280;BME280;34064;44.942;0.008;2023-01-06T05:56:59;99587.22;;;13.65;67.39
47280;BME280;34064;44.942;0.008;2023-01-06T05:59:31;99587.09;;;13.66;67.46
47280;BME280;34064;44.942;0.008;2023-01-06T06:01:58;99588.06;;;13.65;67.53
47280;BME280;34064;44.942;0.008;2023-01-06T06:04:24;99589.75;;;13.66;67.43
47280;BME280;34064;44.942;0.008;2023-01-06T06:06:51;99588.91;;;13.66;67.53
47280;BME280;34064;44.942;0.008;2023-01-06T06:09:17;99585.38;;;13.65;67.48
47280;BME280;34064;44.942;0.008;2023-01-06T06:11:43;99591.72;;;13.64;67.57
47280;BME280;34064;44.942;0.008;2023-01-06T06:14:10;99590.84;;;13.64;67.51
47280;BME280;34064;44.942;0.008;2023-01-06T06:16:36;99596.31;;;13.62;67.50
47280;BME280;34064;44.942;0.008;2023-01-06T06:19:03;99595.44;;;13.62;67.54
47280;BME280;34064;44.942;0.008;2023-01-06T06:21:31;99596.41;;;13.61;67.38
47280;BME280;34064;44.942;0.008;2023-01-06T06:23:59;99599.22;;;13.59;67.51
47280;BME280;34064;44.942;0.008;2023-01-06T06:26:29;99604.56;;;13.59;67.56
47280;BME280;34064;44.942;0.008;2023-01-06T06:28:55;99604.56;;;13.59;67.47
47280;BME280;34064;44.942;0.008;2023-01-06T06:31:25;99604.56;;;13.59;67.44
47280;BME280;34064;44.942;0.008;2023-01-06T06:33:57;99599.22;;;13.59;67.51
47280;BME280;34064;44.942;0.008;2023-01-06T06:36:24;99603.72;;;13.59;67.48
47280;BME280;34064;44.942;0.008;2023-01-06T06:38:53;99601.88;;;13.59;67.57
47280;BME280;34064;44.942;0.008;2023-01-06T06:41:21;99604.56;;;13.59;67.43
47280;BME280;34064;44.942;0.008;2023-01-06T06:43:48;99615.44;;;13.56;67.52
47280;BME280;34064;44.942;0.008;2023-01-06T06:46:19;99617.41;;;13.54;67.48
47280;BME280;34064;44.942;0.008;2023-01-06T06:48:50;99617.84;;;13.48;67.70
47280;BME280;34064;44.942;0.008;2023-01-06T06:51:19;99621.28;;;13.50;67.49
47280;BME280;34064;44.942;0.008;2023-01-06T06:53:48;99618.47;;;13.51;67.64
47280;BME280;34064;44.942;0.008;2023-01-06T06:56:17;99612.28;;;13.51;67.54
47280;BME280;34064;44.942;0.008;2023-01-06T06:58:45;99618.59;;;13.50;67.63
47280;BME280;34064;44.942;0.008;2023-01-06T07:01:14;99616.06;;;13.48;67.69
47280;BME280;34064;44.942;0.008;2023-01-06T07:03:42;99631.19;;;13.48;67.66
47280;BME280;34064;44.942;0.008;2023-01-06T07:06:13;99628.53;;;13.48;67.66
47280;BME280;34064;44.942;0.008;2023-01-06T07:08:43;99626.84;;;13.47;67.67
47280;BME280;34064;44.942;0.008;2023-01-06T07:11:10;99631.31;;;13.46;67.65
47280;BME280;34064;44.942;0.008;2023-01-06T07:13:36;99637.50;;;13.47;67.71
47280;BME280;34064;44.942;0.008;2023-01-06T07:16:03;99633.03;;;13.47;67.56
47280;BME280;34064;44.942;0.008;2023-01-06T07:18:30;99633.03;;;13.47;67.68
47280;BME280;34064;44.942;0.008;2023-01-06T07:20:56;99628.66;;;13.46;67.55
47280;BME280;34064;44.942;0.008;2023-01-06T07:23:26;99637.50;;;13.47;67.77
47280;BME280;34064;44.942;0.008;2023-01-06T07:25:53;99633.03;;;13.47;67.67
47280;BME280;34064;44.942;0.008;2023-01-06T07:28:21;99627.69;;;13.47;67.67
47280;BME280;34064;44.942;0.008;2023-01-06T07:30:49;99631.31;;;13.46;67.44
47280;BME280;34064;44.942;0.008;2023-01-06T07:33:17;99632.16;;;13.47;67.60
47280;BME280;34064;44.942;0.008;2023-01-06T07:35:45;99638.50;;;13.46;67.57
47280;BME280;34064;44.942;0.008;2023-01-06T07:38:12;99639.56;;;13.43;67.64
47280;BME280;34064;44.942;0.008;2023-01-06T07:40:40;99634.13;;;13.45;67.62
47280;BME280;34064;44.942;0.008;2023-01-06T07:43:09;99633.38;;;13.43;67.66
47280;BME280;34064;44.942;0.008;2023-01-06T07:45:37;99634.22;;;13.43;67.65
47280;BME280;34064;44.942;0.008;2023-01-06T07:48:05;99636.88;;;13.43;67.64
47280;BME280;34064;44.942;0.008;2023-01-06T07:50:33;99635.09;;;13.44;67.65
47280;BME280;34064;44.942;0.008;2023-01-06T07:53:02;99636.88;;;13.43;67.61
47280;BME280;34064;44.942;0.008;2023-01-06T07:55:32;99649.41;;;13.43;67.63
47280;BME280;34064;44.942;0.008;2023-01-06T07:58:06;99654.00;;;13.40;67.63
47280;BME280;34064;44.942;0.008;2023-01-06T08:00:34;99664.66;;;13.40;67.73
47280;BME280;34064;44.942;0.008;2023-01-06T08:03:08;99653.03;;;13.41;67.59
47280;BME280;34064;44.942;0.008;2023-01-06T08:05:38;99661.03;;;13.41;67.67
47280;BME280;34064;44.942;0.008;2023-01-06T08:08:13;99655.69;;;13.41;67.69
47280;BME280;34064;44.942;0.008;2023-01-06T08:10:40;99660.06;;;13.43;67.70
47280;BME280;34064;44.942;0.008;2023-01-06T08:13:09;99669.88;;;13.42;67.61
47280;BME280;34064;44.942;0.008;2023-01-06T08:15:40;99665.41;;;13.43;67.61
47280;BME280;34064;44.942;0.008;2023-01-06T08:18:08;99659.19;;;13.42;67.49
47280;BME280;34064;44.942;0.008;2023-01-06T08:20:35;99663.56;;;13.43;67.60
47280;BME280;34064;44.942;0.008;2023-01-06T08:23:03;99663.34;;;13.46;67.60
47280;BME280;34064;44.942;0.008;2023-01-06T08:25:30;99667.84;;;13.46;67.65
47280;BME280;34064;44.942;0.008;2023-01-06T08:27:59;99664.19;;;13.47;67.48
47280;BME280;34064;44.942;0.008;2023-01-06T08:30:30;99665.91;;;13.48;67.58
47280;BME280;34064;44.942;0.008;2023-01-06T08:32:59;99673.81;;;13.49;67.55
47280;BME280;34064;44.942;0.008;2023-01-06T08:35:29;99668.34;;;13.51;67.47
47280;BME280;34064;44.942;0.008;2023-01-06T08:37:56;99671.03;;;13.51;67.60
47280;BME280;34064;44.942;0.008;2023-01-06T08:40:24;99663.75;;;13.53;67.55
47280;BME280;34064;44.942;0.008;2023-01-06T08:42:51;99661.81;;;13.55;67.59
47280;BME280;34064;44.942;0.008;2023-01-06T08:45:19;99670.53;;;13.57;67.43
47280;BME280;34064;44.942;0.008;2023-01-06T08:47:46;99663.28;;;13.59;67.42
47280;BME280;34064;44.942;0.008;2023-01-06T08:50:14;99667.66;;;13.60;67.54
47280;BME280;34064;44.942;0.008;2023-01-06T08:52:42;99666.69;;;13.61;67.48
47280;BME280;34064;44.942;0.008;2023-01-06T08:55:09;99658.56;;;13.63;67.42
47280;BME280;34064;44.942;0.008;2023-01-06T08:57:37;99661.13;;;13.64;67.45
47280;BME280;34064;44.942;0.008;2023-01-06T09:00:05;99656.63;;;13.65;67.53
47280;BME280;34064;44.942;0.008;2023-01-06T09:02:32;99658.56;;;13.63;67.52
47280;BME280;34064;44.942;0.008;2023-01-06T09:04:58;99657.94;;;13.59;67.75
47280;BME280;34064;44.942;0.008;2023-01-06T09:07:24;99658.91;;;13.58;67.72
47280;BME280;34064;44.942;0.008;2023-01-06T09:09:51;99664.25;;;13.58;67.74
47280;BME280;34064;44.942;0.008;2023-01-06T09:12:17;99663.28;;;13.59;67.62
47280;BME280;34064;44.942;0.008;2023-01-06T09:14:43;99666.69;;;13.61;67.69
47280;BME280;34064;44.942;0.008;2023-01-06T09:17:10;99663.06;;;13.62;67.92
47280;BME280;34064;44.942;0.008;2023-01-06T09:19:36;99669.13;;;13.64;67.65
47280;BME280;34064;44.942;0.008;2023-01-06T09:22:03;99662.72;;;13.67;67.63
47280;BME280;34064;44.942;0.008;2023-01-06T09:24:29;99664.41;;;13.68;67.59
47280;BME280;34064;44.942;0.008;2023-01-06T09:26:56;99666.84;;;13.71;67.65
47280;BME280;34064;44.942;0.008;2023-01-06T09:29:25;99666.72;;;13.72;67.64
47280;BME280;34064;44.942;0.008;2023-01-06T09:31:51;99664.91;;;13.73;67.95
47280;BME280;34064;44.942;0.008;2023-01-06T09:34:18;99662.84;;;13.77;67.92
47280;BME280;34064;44.942;0.008;2023-01-06T09:36:44;99664.44;;;13.79;67.77
47280;BME280;34064;44.942;0.008;2023-01-06T09:39:11;99661.66;;;13.81;67.73
47280;BME280;34064;44.942;0.008;2023-01-06T09:44:47;99670.28;;;13.84;67.87
47280;BME280;34064;44.942;0.008;2023-01-06T09:47:21;99654.88;;;13.88;67.67
47280;BME280;34064;44.942;0.008;2023-01-06T09:49:58;99654.50;;;13.93;67.60
47280;BME280;34064;44.942;0.008;2023-01-06T09:52:51;99656.81;;;13.97;67.83
47280;BME280;34064;44.942;0.008;2023-01-06T09:55:36;99648.69;;;13.99;67.62
47280;BME280;34064;44.942;0.008;2023-01-06T09:58:13;99643.84;;;14.04;67.65
47280;BME280;34064;44.942;0.008;2023-01-06T10:03:17;99641.56;;;14.11;67.64
47280;BME280;34064;44.942;0.008;2023-01-06T10:11:31;99629.06;;;14.23;67.77
47280;BME280;34064;44.942;0.008;2023-01-06T10:25:29;99615.66;;;14.45;67.62
47280;BME280;34064;44.942;0.008;2023-01-06T10:28:24;99621.66;;;14.49;67.73
47280;BME280;34064;44.942;0.008;2023-01-06T10:30:59;99624.06;;;14.52;67.58
47280;BME280;34064;44.942;0.008;2023-01-06T10:33:34;99618.47;;;14.55;67.68
47280;BME280;34064;44.942;0.008;2023-01-06T10:36:02;99612.88;;;14.58;67.69
47280;BME280;34064;44.942;0.008;2023-01-06T10:38:43;99609.84;;;14.63;67.66
47280;BME280;34064;44.942;0.008;2023-01-06T10:41:38;99614.09;;;14.65;67.61
47280;BME280;34064;44.942;0.008;2023-01-06T10:44:09;99606.44;;;14.72;67.55
47280;BME280;34064;44.942;0.008;2023-01-06T10:46:38;99599.25;;;14.73;67.53
47280;BME280;34064;44.942;0.008;2023-01-06T10:49:16;99592.94;;;14.74;67.58
47280;BME280;34064;44.942;0.008;2023-01-06T10:51:56;99584.41;;;14.80;67.47
47280;BME280;34064;44.942;0.008;2023-01-06T10:54:27;99578.69;;;14.85;67.45
47280;BME280;34064;44.942;0.008;2023-01-06T10:56:59;99579.28;;;14.88;67.44
47280;BME280;34064;44.942;0.008;2023-01-06T10:59:28;99569.31;;;14.90;67.30
47280;BME280;34064;44.942;0.008;2023-01-06T11:01:58;99565.28;;;14.96;67.45
47280;BME280;34064;44.942;0.008;2023-01-06T11:04:25;99558.72;;;15.00;67.38
47280;BME280;34064;44.942;0.008;2023-01-06T11:06:59;99553.66;;;15.07;67.40
47280;BME280;34064;44.942;0.008;2023-01-06T11:09:35;99545.25;;;15.11;67.33
47280;BME280;34064;44.942;0.008;2023-01-06T11:12:19;99539.41;;;15.18;67.08
47280;BME280;34064;44.942;0.008;2023-01-06T11:15:07;99536.50;;;15.21;67.04
47280;BME280;34064;44.942;0.008;2023-01-06T11:17:45;99523.41;;;15.27;67.13
47280;BME280;34064;44.942;0.008;2023-01-06T11:22:40;99515.31;;;15.39;66.90
47280;BME280;34064;44.942;0.008;2023-01-06T11:25:25;99514.09;;;15.43;66.76
47280;BME280;34064;44.942;0.008;2023-01-06T11:28:18;99516.22;;;15.49;66.54
47280;BME280;34064;44.942;0.008;2023-01-06T11:30:52;99512.91;;;15.57;66.65
47280;BME280;34064;44.942;0.008;2023-01-06T11:33:22;99510.66;;;15.62;66.43
47280;BME280;34064;44.942;0.008;2023-01-06T11:35:50;99503.94;;;15.68;66.06
47280;BME280;34064;44.942;0.008;2023-01-06T11:38:18;99497.44;;;15.70;66.34
47280;BME280;34064;44.942;0.008;2023-01-06T11:40:47;99501.81;;;15.71;66.39
47280;BME280;34064;44.942;0.008;2023-01-06T11:43:24;99498.75;;;15.76;66.50
47280;BME280;34064;44.942;0.008;2023-01-06T11:46:02;99500.03;;;15.82;66.10
47280;BME280;34064;44.942;0.008;2023-01-06T11:48:42;99486.78;;;15.80;66.16
47280;BME280;34064;44.942;0.008;2023-01-06T11:51:10;99491.63;;;15.86;65.96
47280;BME280;34064;44.942;0.008;2023-01-06T11:53:53;99486.03;;;15.89;65.48
47280;BME280;34064;44.942;0.008;2023-01-06T11:56:22;99489.53;;;15.90;65.41
47280;BME280;34064;44.942;0.008;2023-01-06T11:58:57;99483.78;;;15.95;65.61
47280;BME280;34064;44.942;0.008;2023-01-06T12:01:46;99484.34;;;15.98;65.23
47280;BME280;34064;44.942;0.008;2023-01-06T12:04:41;99476.88;;;16.02;65.11
47280;BME280;34064;44.942;0.008;2023-01-06T12:07:37;99474.19;;;16.02;64.71
47280;BME280;34064;44.942;0.008;2023-01-06T12:10:21;99475.91;;;16.03;64.84
47280;BME280;34064;44.942;0.008;2023-01-06T12:12:49;99466.63;;;16.07;64.83
47280;BME280;34064;44.942;0.008;2023-01-06T12:15:17;99464.25;;;16.14;64.77
47280;BME280;34064;44.942;0.008;2023-01-06T12:18:06;99460.16;;;16.19;64.54
47280;BME280;34064;44.942;0.008;2023-01-06T12:20:39;99454.25;;;16.26;64.65
47280;BME280;34064;44.942;0.008;2023-01-06T12:23:28;99452.28;;;16.28;64.42
47280;BME280;34064;44.942;0.008;2023-01-06T12:26:02;99449.28;;;16.31;64.12
47280;BME280;34064;44.942;0.008;2023-01-06T12:28:33;99436.88;;;16.30;63.94
47280;BME280;34064;44.942;0.008;2023-01-06T12:39:40;99409.09;;;16.50;63.82
47280;BME280;34064;44.942;0.008;2023-01-06T12:45:13;99400.91;;;16.62;63.32
47280;BME280;34064;44.942;0.008;2023-01-06T12:47:55;99402.88;;;16.60;63.46
47280;BME280;34064;44.942;0.008;2023-01-06T12:51:09;99398.94;;;16.64;63.65
47280;BME280;34064;44.942;0.008;2023-01-06T12:53:39;99387.63;;;16.70;63.62
47280;BME280;34064;44.942;0.008;2023-01-06T12:56:31;99380.03;;;16.75;63.41
47280;BME280;34064;44.942;0.008;2023-01-06T13:02:42;99369.97;;;16.77;62.95
47280;BME280;34064;44.942;0.008;2023-01-06T13:14:25;99363.91;;;16.85;62.05
47280;BME280;34064;44.942;0.008;2023-01-06T13:19:46;99364.44;;;16.89;61.90
47280;BME280;34064;44.942;0.008;2023-01-06T13:25:38;99363.06;;;16.94;61.46
47280;BME280;34064;44.942;0.008;2023-01-06T13:34:19;99345.81;;;16.97;60.86
47280;BME280;34064;44.942;0.008;2023-01-06T13:37:14;99342.13;;;16.98;61.17
47280;BME280;34064;44.942;0.008;2023-01-06T13:39:57;99341.31;;;16.97;60.88
47280;BME280;34064;44.942;0.008;2023-01-06T13:45:06;99339.78;;;16.95;61.17
47280;BME280;34064;44.942;0.008;2023-01-06T13:47:35;99337.91;;;16.95;61.05
47280;BME280;34064;44.942;0.008;2023-01-06T13:50:03;99336.06;;;16.96;61.20
47280;BME280;34064;44.942;0.008;2023-01-06T13:52:30;99336.78;;;16.98;60.88
47280;BME280;34064;44.942;0.008;2023-01-06T13:55:04;99336.50;;;17.01;60.20
47280;BME280;34064;44.942;0.008;2023-01-06T13:57:36;99333.53;;;16.94;60.08
47280;BME280;34064;44.942;0.008;2023-01-06T14:05:06;99333.38;;;16.86;60.23
47280;BME280;34064;44.942;0.008;2023-01-06T14:07:40;99335.38;;;16.84;60.30
47280;BME280;34064;44.942;0.008;2023-01-06T14:10:39;99325.50;;;16.84;60.18
47280;BME280;34064;44.942;0.008;2023-01-06T14:13:23;99328.03;;;16.86;60.03
47280;BME280;34064;44.942;0.008;2023-01-06T14:16:11;99322.09;;;16.82;60.08
47280;BME280;34064;44.942;0.008;2023-01-06T14:18:41;99328.19;;;16.84;60.11
47280;BME280;34064;44.942;0.008;2023-01-06T14:21:25;99321.66;;;16.87;59.90
47280;BME280;34064;44.942;0.008;2023-01-06T14:27:03;99318.72;;;16.90;60.39
47280;BME280;34064;44.942;0.008;2023-01-06T14:34:54;99307.13;;;16.99;59.80
47280;BME280;34064;44.942;0.008;2023-01-06T14:37:42;99306.81;;;17.03;59.96
47280;BME280;34064;44.942;0.008;2023-01-06T14:40:39;99302.16;;;17.05;59.51
47280;BME280;34064;44.942;0.008;2023-01-06T14:43:49;99301.16;;;17.06;58.94
47280;BME280;34064;44.942;0.008;2023-01-06T14:46:32;99297.78;;;17.04;59.33
47280;BME280;34064;44.942;0.008;2023-01-06T14:49:43;99305.66;;;17.05;58.74
47280;BME280;34064;44.942;0.008;2023-01-06T14:52:28;99297.34;;;17.08;59.10
47280;BME280;34064;44.942;0.008;2023-01-06T14:55:22;99294.03;;;17.14;59.08
47280;BME280;34064;44.942;0.008;2023-01-06T14:57:49;99281.31;;;17.17;58.13
47280;BME280;34064;44.942;0.008;2023-01-06T15:00:17;99282.31;;;17.15;58.24
47280;BME280;34064;44.942;0.008;2023-01-06T15:02:47;99294.66;;;17.08;58.57
47280;BME280;34064;44.942;0.008;2023-01-06T15:05:27;99289.88;;;17.02;58.80
47280;BME280;34064;44.942;0.008;2023-01-06T15:08:05;99289.63;;;16.95;58.70
47280;BME280;34064;44.942;0.008;2023-01-06T15:10:37;99294.69;;;16.89;59.14
47280;BME280;34064;44.942;0.008;2023-01-06T15:13:28;99296.13;;;16.83;59.37
47280;BME280;34064;44.942;0.008;2023-01-06T15:16:21;99290.19;;;16.79;59.46
47280;BME280;34064;44.942;0.008;2023-01-06T15:18:50;99290.50;;;16.76;59.38
47280;BME280;34064;44.942;0.008;2023-01-06T15:21:19;99287.13;;;16.74;59.72
47280;BME280;34064;44.942;0.008;2023-01-06T15:23:51;99288.25;;;16.72;59.76
47280;BME280;34064;44.942;0.008;2023-01-06T15:26:25;99289.38;;;16.69;59.90